Tongo Airport

Jump to: basic info | weather | comments

Related pages: nearby airports | nearby navaids | notams | map

Basic information (top)

Codes: GFTO
Location: lon 8.217000, lat -11.067000, elev 750 ft / 229 m msl
Status: small_airport

Weather (top)

Current conditions for Roberts International Airport 126nm (234km) SSE (rec'd 2014/12/22 14:30Z):

GLRB 221430Z 24005KT 9000 SCT020 32/23 Q1010 RMK HZVC

Airport forecast for Roberts International Airport 126nm (234km) SSE (rec'd 2014/12/22 12:51Z):

TAF GLRB 221000Z 2212/2318 23008KT 9000 BKN020 FM 221300 21008KT 8000 SCT018 
      BECMG 2220/2222 00000KT 8000 FEW012

Latest comments (top)

No comments yet for Tongo Airport

More... (top)

See also NOTAMs and nearby airports and navaids, or visit the Tongo Airport page at the main OurAirports website..